Integrity — WDF4881 — position and weather

sailwx.info

Track history (hours):
 
Tides and Currents Weather Stations Pressure Air Temp Water Temp Dewpoint Dewpoint Depression Visibility Wind Speed Wind Dir Waves Ship Positions

Integrity

Owner: Canal Barge Company, Inc., Belle Chasse, LA. More information available from US FCC via Universal Licensing System and Coast Guard Vessel Documentation Center.

Last reported at 2016-Jul-28 21:16 UTC. Time now 2016-Jul-30 22:34 UTC.
Position N 29°56' W 093°52'.

Length 19 m; draft 2.8 m.

Type: Towing. MMSI: 367456830.

Date/timePositionNaut miles runAvg speedWind from/ knotsBaromVisibWave heightAir tempDewpointWater temp
2016-Jul-28 21:16N 29°56' W 093°52'4 5.5
2016-Jul-28 20:31N 29°59' W 093°49'5 5.6
2016-Jul-28 19:33N 30°02' W 093°44'5 4.8
2016-Jul-28 18:33N 30°04' W 093°39'5 4.7
2016-Jul-28 17:33N 30°04' W 093°33'5 4.7
2016-Jul-28 16:33N 30°04' W 093°28'4 4.3
2016-Jul-28 15:34N 30°04' W 093°23'4 3.5
2016-Jul-28 14:34N 30°06' W 093°20'5 5.0
2016-Jul-28 13:34N 30°11' W 093°19'4 4.3
2016-Jul-28 12:33N 30°13' W 093°15'0 0.4
2016-Jul-28 11:34N 30°14' W 093°15'0 0.0
2016-Jul-28 10:33N 30°14' W 093°15'0 0.0
2016-Jul-28 09:34N 30°14' W 093°15'0 0.0
2016-Jul-28 08:33N 30°14' W 093°15'0 0.0
2016-Jul-28 07:34N 30°14' W 093°15'0 0.0
2016-Jul-28 06:34N 30°14' W 093°15'0 0.0
2016-Jul-28 05:31N 30°14' W 093°15'0 0.0
2016-Jul-28 04:33N 30°14' W 093°15'0 0.0
2016-Jul-28 03:33N 30°14' W 093°15'0 0.0
2016-Jul-28 02:33N 30°14' W 093°15'0 0.0
2016-Jul-28 01:33N 30°14' W 093°15'0 0.0
2016-Jul-28 00:34N 30°14' W 093°15'0 0.0
2016-Jul-27 23:33N 30°14' W 093°15'0 0.0
2016-Jul-27 22:34N 30°14' W 093°15'0 0.0
2016-Jul-27 21:34N 30°14' W 093°15'0 0.0
2016-Jul-27 20:33N 30°14' W 093°15'0 0.0
2016-Jul-27 19:34N 30°14' W 093°15'0 0.0
2016-Jul-27 18:33N 30°14' W 093°15'0 0.0
2016-Jul-27 17:33N 30°14' W 093°15'0 0.0
2016-Jul-27 16:33N 30°14' W 093°15'0 0.0
2016-Jul-27 15:34N 30°14' W 093°15'0 0.0
2016-Jul-27 14:33N 30°14' W 093°15'0 0.0
2016-Jul-27 13:34N 30°14' W 093°15'0 0.0
2016-Jul-27 12:33N 30°14' W 093°15'0 0.0
2016-Jul-27 11:33N 30°14' W 093°15'0 0.0
2016-Jul-27 10:33N 30°14' W 093°15'0 0.0
2016-Jul-27 09:34N 30°14' W 093°15'0 0.0
2016-Jul-27 08:33N 30°14' W 093°15'0 0.0
2016-Jul-27 07:34N 30°14' W 093°15'0 0.0
2016-Jul-27 06:33N 30°14' W 093°15'0 0.0
2016-Jul-27 05:34N 30°14' W 093°15'0 0.0
2016-Jul-27 04:33N 30°14' W 093°15'0 0.0
2016-Jul-27 03:33N 30°14' W 093°15'0 0.0
2016-Jul-27 02:34N 30°14' W 093°15'0 0.0
2016-Jul-27 01:34N 30°14' W 093°15'0 0.0
2016-Jul-27 00:34N 30°14' W 093°15'0 0.0
2016-Jul-26 23:34N 30°14' W 093°15'0 0.0
2016-Jul-26 22:34N 30°14' W 093°15'0 0.0
2016-Jul-26 21:34N 30°14' W 093°15'0 0.0
2016-Jul-26 20:34N 30°14' W 093°15'0 0.4
2016-Jul-26 19:34N 30°14' W 093°15'5 5.2
2016-Jul-26 18:34N 30°10' W 093°19'5 5.3
2016-Jul-26 17:33N 30°04' W 093°20'0 0.3
2016-Jul-26 16:34N 30°05' W 093°20'2 1.6
2016-Jul-26 15:33N 30°04' W 093°22'1 1.1
2016-Jul-26 14:33N 30°04' W 093°21'0 0.0
2016-Jul-26 13:33N 30°04' W 093°21'0 0.0
2016-Jul-26 12:33N 30°04' W 093°21'0 0.0
2016-Jul-26 11:34N 30°04' W 093°21'0 0.0
2016-Jul-26 10:34N 30°04' W 093°21'0 0.0
2016-Jul-26 09:33N 30°04' W 093°21'0 0.0
2016-Jul-26 08:34N 30°04' W 093°21'0 0.0
2016-Jul-26 07:34N 30°04' W 093°21'0 0.0
2016-Jul-26 06:34N 30°04' W 093°21'0 0.0
2016-Jul-26 05:34N 30°04' W 093°21'0 0.0
2016-Jul-26 04:34N 30°04' W 093°21'0 0.0
2016-Jul-26 03:34N 30°04' W 093°21'0 0.0
2016-Jul-26 02:33N 30°04' W 093°21'0 0.0
2016-Jul-26 01:33N 30°04' W 093°21'0 0.0
2016-Jul-26 00:34N 30°04' W 093°21'0 0.0
2016-Jul-25 23:34N 30°04' W 093°21'0 0.0
2016-Jul-25 22:33N 30°04' W 093°21'0 0.0
2016-Jul-25 21:33N 30°04' W 093°21'0 0.0
2016-Jul-25 20:33N 30°04' W 093°21'1 0.8
2016-Jul-25 19:33N 30°04' W 093°21'0 0.1
2016-Jul-25 18:34N 30°04' W 093°21'2 1.8
2016-Jul-25 17:33N 30°05' W 093°20'2 1.8
2016-Jul-25 16:33N 30°04' W 093°21'0 0.0
2016-Jul-25 15:33N 30°04' W 093°21'0 0.0
2016-Jul-25 14:33N 30°04' W 093°21'0 0.1
2016-Jul-25 13:34N 30°04' W 093°21'1 0.9
2016-Jul-25 12:33N 30°04' W 093°21'0 0.0
2016-Jul-25 11:33N 30°04' W 093°21'0 0.0
2016-Jul-25 10:34N 30°04' W 093°21'0 0.0
2016-Jul-25 09:33N 30°04' W 093°21'0 0.0
2016-Jul-25 08:33N 30°04' W 093°21'0 0.0
2016-Jul-25 07:34N 30°04' W 093°21'0 0.0
2016-Jul-25 06:34N 30°04' W 093°21'0 0.0
2016-Jul-25 05:34N 30°04' W 093°21'0 0.0
2016-Jul-25 04:34N 30°04' W 093°21'0 0.0
2016-Jul-25 03:34N 30°04' W 093°21'0 0.0
2016-Jul-25 02:33N 30°04' W 093°21'0 0.0
2016-Jul-25 01:34N 30°04' W 093°21'0 0.0
2016-Jul-25 00:33N 30°04' W 093°21'1 1.0
2016-Jul-24 23:33N 30°05' W 093°20'0 0.0
2016-Jul-24 22:33N 30°05' W 093°20'0 0.1
2016-Jul-24 21:34N 30°05' W 093°20'0 0.0
2016-Jul-24 20:34N 30°05' W 093°20'1 1.0
2016-Jul-24 19:34N 30°04' W 093°21'4 3.8
2016-Jul-24 18:33N 30°08' W 093°20'6 5.5
2016-Jul-24 17:33N 30°12' W 093°16'2 1.6
2016-Jul-24 16:33N 30°14' W 093°15'1 0.7
2016-Jul-24 15:33N 30°13' W 093°16'0 0.2
2016-Jul-24 14:34N 30°13' W 093°16'0 0.0
2016-Jul-24 13:34N 30°13' W 093°16'0 0.0
2016-Jul-24 12:33N 30°13' W 093°16'0 0.0
2016-Jul-24 11:34N 30°13' W 093°16'0 0.0
2016-Jul-24 10:33N 30°13' W 093°16'0 0.0
2016-Jul-24 09:34N 30°13' W 093°16'0 0.0
2016-Jul-24 08:33N 30°13' W 093°16'0 0.0
2016-Jul-24 07:34N 30°13' W 093°16'0 0.0
2016-Jul-24 06:34N 30°13' W 093°16'0 0.0
2016-Jul-24 05:34N 30°13' W 093°16'0 0.0
2016-Jul-24 04:34N 30°13' W 093°16'0 0.0
2016-Jul-24 03:34N 30°13' W 093°16'0 0.0
2016-Jul-24 02:34N 30°13' W 093°16'0 0.0
2016-Jul-24 01:33N 30°13' W 093°16'0 0.0
2016-Jul-24 00:32N 30°13' W 093°16'0 0.0
2016-Jul-23 23:33N 30°13' W 093°16'1 0.7
2016-Jul-23 22:34N 30°14' W 093°16'0 0.2
2016-Jul-23 21:34N 30°14' W 093°15'0 0.0
2016-Jul-23 20:34N 30°14' W 093°15'0 0.0
2016-Jul-23 19:33N 30°14' W 093°15'0 0.0
2016-Jul-23 18:33N 30°14' W 093°15'0 0.0
2016-Jul-23 17:33N 30°14' W 093°15'0 0.0
2016-Jul-23 16:34N 30°14' W 093°15'0 0.0
2016-Jul-23 15:34N 30°14' W 093°15'0 0.0
2016-Jul-23 14:34N 30°14' W 093°15'0 0.0
2016-Jul-23 13:33N 30°14' W 093°15'0 0.0
2016-Jul-23 12:34N 30°14' W 093°15'0 0.0
2016-Jul-23 11:34N 30°14' W 093°15'0 0.0
2016-Jul-23 10:33N 30°14' W 093°15'0 0.0
2016-Jul-23 09:33N 30°14' W 093°15'0 0.0
2016-Jul-23 08:29N 30°14' W 093°15'0 0.0
2016-Jul-23 07:33N 30°14' W 093°15'0 0.0
2016-Jul-23 06:29N 30°14' W 093°15'0 0.0
2016-Jul-23 04:34N 30°14' W 093°15'0 0.0
2016-Jul-23 03:34N 30°14' W 093°15'0 0.0
2016-Jul-23 02:34N 30°14' W 093°15'0 0.0
2016-Jul-23 01:33N 30°14' W 093°15'0 0.0
2016-Jul-23 00:33N 30°14' W 093°15'0 0.0
2016-Jul-22 23:34N 30°14' W 093°15'0 0.0
2016-Jul-22 22:34N 30°14' W 093°15'0 0.0
2016-Jul-22 21:34N 30°14' W 093°15'0 0.0
2016-Jul-22 20:33N 30°14' W 093°15'0 0.0
2016-Jul-22 19:34N 30°14' W 093°15'0 0.3
2016-Jul-22 18:34N 30°14' W 093°15'4 3.9
2016-Jul-22 17:34N 30°11' W 093°19'3 3.1
2016-Jul-22 16:34N 30°08' W 093°20'1 0.6
2016-Jul-22 15:34N 30°08' W 093°19'0 0.0
2016-Jul-22 14:34N 30°08' W 093°19'0 0.0
2016-Jul-22 13:34N 30°08' W 093°19'0 0.0
2016-Jul-22 12:33N 30°08' W 093°19'0 0.0
2016-Jul-22 11:33N 30°08' W 093°19'0 0.0
2016-Jul-22 10:34N 30°08' W 093°19'0 0.0
2016-Jul-22 09:33N 30°08' W 093°19'0 0.0
2016-Jul-22 08:33N 30°08' W 093°19'0 0.0
2016-Jul-22 07:33N 30°08' W 093°19'0 0.0
2016-Jul-22 05:33N 30°08' W 093°19'0 0.0
2016-Jul-22 04:34N 30°08' W 093°19'0 0.0
2016-Jul-22 03:34N 30°08' W 093°19'0 0.0
2016-Jul-22 02:33N 30°08' W 093°19'0 0.0
2016-Jul-22 01:34N 30°08' W 093°19'0 0.0
2016-Jul-22 00:33N 30°08' W 093°19'0 0.0
2016-Jul-21 23:34N 30°08' W 093°19'2 1.9
2016-Jul-21 22:34N 30°06' W 093°20'2 2.1
2016-Jul-21 21:33N 30°04' W 093°20'0 0.1
2016-Jul-21 20:34N 30°04' W 093°20'0 0.0
2016-Jul-21 19:33N 30°04' W 093°20'0 0.0
2016-Jul-21 18:33N 30°04' W 093°20'0 0.0
2016-Jul-21 17:34N 30°04' W 093°20'0 0.0
2016-Jul-21 16:33N 30°04' W 093°20'0 0.0
2016-Jul-21 15:33N 30°04' W 093°20'0 0.0
2016-Jul-21 14:34N 30°04' W 093°20'0 0.0
2016-Jul-21 13:33N 30°04' W 093°20'0 0.0
2016-Jul-21 12:34N 30°04' W 093°20'0 0.0
2016-Jul-21 11:33N 30°04' W 093°20'0 0.0
2016-Jul-21 10:34N 30°04' W 093°20'0 0.0
2016-Jul-21 09:34N 30°04' W 093°20'0 0.0
2016-Jul-21 08:34N 30°04' W 093°20'0 0.0
2016-Jul-21 07:34N 30°04' W 093°20'0 0.0
2016-Jul-21 06:33N 30°04' W 093°20'0 0.0
2016-Jul-21 05:34N 30°04' W 093°20'0 0.0
2016-Jul-21 04:32N 30°04' W 093°20'0 0.0
2016-Jul-21 03:33N 30°04' W 093°20'0 0.0
2016-Jul-21 02:34N 30°04' W 093°20'0 0.0
2016-Jul-21 01:34N 30°04' W 093°20'0 0.0
2016-Jul-21 00:34N 30°04' W 093°20'0 0.0
2016-Jul-20 23:34N 30°04' W 093°20'0 0.0
2016-Jul-20 22:33N 30°04' W 093°20'0 0.0
2016-Jul-20 21:34N 30°04' W 093°20'0 0.0
2016-Jul-20 20:33N 30°04' W 093°20'0 0.0
2016-Jul-20 19:34N 30°04' W 093°20'0 0.0
2016-Jul-20 18:34N 30°04' W 093°20'0 0.0
2016-Jul-20 17:34N 30°04' W 093°20'0 0.0
2016-Jul-20 16:34N 30°04' W 093°20'0 0.0
2016-Jul-20 15:33N 30°04' W 093°20'0 0.0
2016-Jul-20 14:34N 30°04' W 093°20'0 0.4
2016-Jul-20 13:34N 30°04' W 093°21'1 0.6
2016-Jul-20 12:34N 30°04' W 093°21'0 0.1
2016-Jul-20 11:34N 30°04' W 093°21'0 0.0
2016-Jul-20 10:33N 30°04' W 093°21'1 0.9
2016-Jul-20 09:34N 30°04' W 093°20'0 0.0
2016-Jul-20 08:34N 30°04' W 093°20'0 0.0
2016-Jul-20 07:34N 30°04' W 093°20'0 0.0
2016-Jul-20 06:34N 30°04' W 093°20'0 0.0
2016-Jul-20 05:33N 30°04' W 093°20'0 0.0
2016-Jul-20 04:34N 30°04' W 093°20'0 0.0
2016-Jul-20 03:34N 30°04' W 093°20'0 0.0
2016-Jul-20 02:34N 30°04' W 093°20'0 0.0
2016-Jul-20 01:34N 30°04' W 093°20'0 0.0
2016-Jul-20 00:34N 30°04' W 093°20'0 0.0
2016-Jul-19 23:34N 30°04' W 093°20'0 0.0
2016-Jul-19 22:34N 30°04' W 093°20'0 0.0
2016-Jul-19 21:34N 30°04' W 093°20'0 0.0
2016-Jul-19 20:34N 30°04' W 093°20'0 0.0
2016-Jul-19 19:33N 30°04' W 093°20'0 0.0
2016-Jul-19 18:33N 30°04' W 093°20'0 0.0
2016-Jul-19 17:33N 30°04' W 093°20'0 0.0
2016-Jul-19 16:34N 30°04' W 093°20'0 0.0
2016-Jul-19 15:34N 30°04' W 093°20'0 0.0
2016-Jul-19 14:34N 30°04' W 093°20'0 0.0
2016-Jul-19 13:34N 30°04' W 093°20'0 0.0
2016-Jul-19 12:34N 30°04' W 093°20'0 0.0
2016-Jul-19 11:34N 30°04' W 093°20'0 0.0
2016-Jul-19 10:34N 30°04' W 093°20'0 0.0
2016-Jul-19 09:33N 30°04' W 093°20'0 0.0
2016-Jul-19 08:33N 30°04' W 093°20'0 0.0
2016-Jul-19 07:34N 30°04' W 093°20'0 0.0
2016-Jul-19 04:33N 30°04' W 093°20'0 0.0
2016-Jul-19 03:34N 30°04' W 093°20'0 0.0
2016-Jul-19 02:34N 30°04' W 093°20'0 0.0
2016-Jul-19 01:34N 30°04' W 093°20'1 1.1
2016-Jul-19 00:33N 30°05' W 093°20'2 1.7
2016-Jul-18 23:34N 30°06' W 093°18'3 2.7
2016-Jul-18 22:34N 30°04' W 093°20'3 3.2
2016-Jul-18 21:34N 30°08' W 093°20'  
Track history (hours):
 
Tides and Currents Weather Stations Pressure Air Temp Water Temp Dewpoint Dewpoint Depression Visibility Wind Speed Wind Dir Waves Ship Positions

Integrity

Owner: Canal Barge Company, Inc., Belle Chasse, LA. More information available from US FCC via Universal Licensing System and Coast Guard Vessel Documentation Center.

Last reported at 2016-Jul-28 21:16 UTC. Time now 2016-Jul-30 22:34 UTC.
Position N 29°56' W 093°52'.

Length 19 m; draft 2.8 m.

Type: Towing. MMSI: 367456830.

Date/timePositionNaut miles runAvg speedWind from/ knotsBaromVisibWave heightAir tempDewpointWater temp
2016-Jul-28 21:16N 29°56' W 093°52'4 5.5
2016-Jul-28 20:31N 29°59' W 093°49'5 5.6
2016-Jul-28 19:33N 30°02' W 093°44'5 4.8
2016-Jul-28 18:33N 30°04' W 093°39'5 4.7
2016-Jul-28 17:33N 30°04' W 093°33'5 4.7
2016-Jul-28 16:33N 30°04' W 093°28'4 4.3
2016-Jul-28 15:34N 30°04' W 093°23'4 3.5
2016-Jul-28 14:34N 30°06' W 093°20'5 5.0
2016-Jul-28 13:34N 30°11' W 093°19'4 4.3
2016-Jul-28 12:33N 30°13' W 093°15'0 0.4
2016-Jul-28 11:34N 30°14' W 093°15'0 0.0
2016-Jul-28 10:33N 30°14' W 093°15'0 0.0
2016-Jul-28 09:34N 30°14' W 093°15'0 0.0
2016-Jul-28 08:33N 30°14' W 093°15'0 0.0
2016-Jul-28 07:34N 30°14' W 093°15'0 0.0
2016-Jul-28 06:34N 30°14' W 093°15'0 0.0
2016-Jul-28 05:31N 30°14' W 093°15'0 0.0
2016-Jul-28 04:33N 30°14' W 093°15'0 0.0
2016-Jul-28 03:33N 30°14' W 093°15'0 0.0
2016-Jul-28 02:33N 30°14' W 093°15'0 0.0
2016-Jul-28 01:33N 30°14' W 093°15'0 0.0
2016-Jul-28 00:34N 30°14' W 093°15'0 0.0
2016-Jul-27 23:33N 30°14' W 093°15'0 0.0
2016-Jul-27 22:34N 30°14' W 093°15'0 0.0
2016-Jul-27 21:34N 30°14' W 093°15'0 0.0
2016-Jul-27 20:33N 30°14' W 093°15'0 0.0
2016-Jul-27 19:34N 30°14' W 093°15'0 0.0
2016-Jul-27 18:33N 30°14' W 093°15'0 0.0
2016-Jul-27 17:33N 30°14' W 093°15'0 0.0
2016-Jul-27 16:33N 30°14' W 093°15'0 0.0
2016-Jul-27 15:34N 30°14' W 093°15'0 0.0
2016-Jul-27 14:33N 30°14' W 093°15'0 0.0
2016-Jul-27 13:34N 30°14' W 093°15'0 0.0
2016-Jul-27 12:33N 30°14' W 093°15'0 0.0
2016-Jul-27 11:33N 30°14' W 093°15'0 0.0
2016-Jul-27 10:33N 30°14' W 093°15'0 0.0
2016-Jul-27 09:34N 30°14' W 093°15'0 0.0
2016-Jul-27 08:33N 30°14' W 093°15'0 0.0
2016-Jul-27 07:34N 30°14' W 093°15'0 0.0
2016-Jul-27 06:33N 30°14' W 093°15'0 0.0
2016-Jul-27 05:34N 30°14' W 093°15'0 0.0
2016-Jul-27 04:33N 30°14' W 093°15'0 0.0
2016-Jul-27 03:33N 30°14' W 093°15'0 0.0
2016-Jul-27 02:34N 30°14' W 093°15'0 0.0
2016-Jul-27 01:34N 30°14' W 093°15'0 0.0
2016-Jul-27 00:34N 30°14' W 093°15'0 0.0
2016-Jul-26 23:34N 30°14' W 093°15'0 0.0
2016-Jul-26 22:34N 30°14' W 093°15'0 0.0
2016-Jul-26 21:34N 30°14' W 093°15'0 0.0
2016-Jul-26 20:34N 30°14' W 093°15'0 0.4
2016-Jul-26 19:34N 30°14' W 093°15'5 5.2
2016-Jul-26 18:34N 30°10' W 093°19'5 5.3
2016-Jul-26 17:33N 30°04' W 093°20'0 0.3
2016-Jul-26 16:34N 30°05' W 093°20'2 1.6
2016-Jul-26 15:33N 30°04' W 093°22'1 1.1
2016-Jul-26 14:33N 30°04' W 093°21'0 0.0
2016-Jul-26 13:33N 30°04' W 093°21'0 0.0
2016-Jul-26 12:33N 30°04' W 093°21'0 0.0
2016-Jul-26 11:34N 30°04' W 093°21'0 0.0
2016-Jul-26 10:34N 30°04' W 093°21'0 0.0
2016-Jul-26 09:33N 30°04' W 093°21'0 0.0
2016-Jul-26 08:34N 30°04' W 093°21'0 0.0
2016-Jul-26 07:34N 30°04' W 093°21'0 0.0
2016-Jul-26 06:34N 30°04' W 093°21'0 0.0
2016-Jul-26 05:34N 30°04' W 093°21'0 0.0
2016-Jul-26 04:34N 30°04' W 093°21'0 0.0
2016-Jul-26 03:34N 30°04' W 093°21'0 0.0
2016-Jul-26 02:33N 30°04' W 093°21'0 0.0
2016-Jul-26 01:33N 30°04' W 093°21'0 0.0
2016-Jul-26 00:34N 30°04' W 093°21'0 0.0
2016-Jul-25 23:34N 30°04' W 093°21'0 0.0
2016-Jul-25 22:33N 30°04' W 093°21'0 0.0
2016-Jul-25 21:33N 30°04' W 093°21'0 0.0
2016-Jul-25 20:33N 30°04' W 093°21'1 0.8
2016-Jul-25 19:33N 30°04' W 093°21'0 0.1
2016-Jul-25 18:34N 30°04' W 093°21'2 1.8
2016-Jul-25 17:33N 30°05' W 093°20'2 1.8
2016-Jul-25 16:33N 30°04' W 093°21'0 0.0
2016-Jul-25 15:33N 30°04' W 093°21'0 0.0
2016-Jul-25 14:33N 30°04' W 093°21'0 0.1
2016-Jul-25 13:34N 30°04' W 093°21'1 0.9
2016-Jul-25 12:33N 30°04' W 093°21'0 0.0
2016-Jul-25 11:33N 30°04' W 093°21'0 0.0
2016-Jul-25 10:34N 30°04' W 093°21'0 0.0
2016-Jul-25 09:33N 30°04' W 093°21'0 0.0
2016-Jul-25 08:33N 30°04' W 093°21'0 0.0
2016-Jul-25 07:34N 30°04' W 093°21'0 0.0
2016-Jul-25 06:34N 30°04' W 093°21'0 0.0
2016-Jul-25 05:34N 30°04' W 093°21'0 0.0
2016-Jul-25 04:34N 30°04' W 093°21'0 0.0
2016-Jul-25 03:34N 30°04' W 093°21'0 0.0
2016-Jul-25 02:33N 30°04' W 093°21'0 0.0
2016-Jul-25 01:34N 30°04' W 093°21'0 0.0
2016-Jul-25 00:33N 30°04' W 093°21'1 1.0
2016-Jul-24 23:33N 30°05' W 093°20'0 0.0
2016-Jul-24 22:33N 30°05' W 093°20'0 0.1
2016-Jul-24 21:34N 30°05' W 093°20'0 0.0
2016-Jul-24 20:34N 30°05' W 093°20'1 1.0
2016-Jul-24 19:34N 30°04' W 093°21'4 3.8
2016-Jul-24 18:33N 30°08' W 093°20'6 5.5
2016-Jul-24 17:33N 30°12' W 093°16'2 1.6
2016-Jul-24 16:33N 30°14' W 093°15'1 0.7
2016-Jul-24 15:33N 30°13' W 093°16'0 0.2
2016-Jul-24 14:34N 30°13' W 093°16'0 0.0
2016-Jul-24 13:34N 30°13' W 093°16'0 0.0
2016-Jul-24 12:33N 30°13' W 093°16'0 0.0
2016-Jul-24 11:34N 30°13' W 093°16'0 0.0
2016-Jul-24 10:33N 30°13' W 093°16'0 0.0
2016-Jul-24 09:34N 30°13' W 093°16'0 0.0
2016-Jul-24 08:33N 30°13' W 093°16'0 0.0
2016-Jul-24 07:34N 30°13' W 093°16'0 0.0
2016-Jul-24 06:34N 30°13' W 093°16'0 0.0
2016-Jul-24 05:34N 30°13' W 093°16'0 0.0
2016-Jul-24 04:34N 30°13' W 093°16'0 0.0
2016-Jul-24 03:34N 30°13' W 093°16'0 0.0
2016-Jul-24 02:34N 30°13' W 093°16'0 0.0
2016-Jul-24 01:33N 30°13' W 093°16'0 0.0
2016-Jul-24 00:32N 30°13' W 093°16'0 0.0
2016-Jul-23 23:33N 30°13' W 093°16'1 0.7
2016-Jul-23 22:34N 30°14' W 093°16'0 0.2
2016-Jul-23 21:34N 30°14' W 093°15'0 0.0
2016-Jul-23 20:34N 30°14' W 093°15'0 0.0
2016-Jul-23 19:33N 30°14' W 093°15'0 0.0
2016-Jul-23 18:33N 30°14' W 093°15'0 0.0
2016-Jul-23 17:33N 30°14' W 093°15'0 0.0
2016-Jul-23 16:34N 30°14' W 093°15'0 0.0
2016-Jul-23 15:34N 30°14' W 093°15'0 0.0
2016-Jul-23 14:34N 30°14' W 093°15'0 0.0
2016-Jul-23 13:33N 30°14' W 093°15'0 0.0
2016-Jul-23 12:34N 30°14' W 093°15'0 0.0
2016-Jul-23 11:34N 30°14' W 093°15'0 0.0
2016-Jul-23 10:33N 30°14' W 093°15'0 0.0
2016-Jul-23 09:33N 30°14' W 093°15'0 0.0
2016-Jul-23 08:29N 30°14' W 093°15'0 0.0
2016-Jul-23 07:33N 30°14' W 093°15'0 0.0
2016-Jul-23 06:29N 30°14' W 093°15'0 0.0
2016-Jul-23 04:34N 30°14' W 093°15'0 0.0
2016-Jul-23 03:34N 30°14' W 093°15'0 0.0
2016-Jul-23 02:34N 30°14' W 093°15'0 0.0
2016-Jul-23 01:33N 30°14' W 093°15'0 0.0
2016-Jul-23 00:33N 30°14' W 093°15'0 0.0
2016-Jul-22 23:34N 30°14' W 093°15'0 0.0
2016-Jul-22 22:34N 30°14' W 093°15'0 0.0
2016-Jul-22 21:34N 30°14' W 093°15'0 0.0
2016-Jul-22 20:33N 30°14' W 093°15'0 0.0
2016-Jul-22 19:34N 30°14' W 093°15'0 0.3
2016-Jul-22 18:34N 30°14' W 093°15'4 3.9
2016-Jul-22 17:34N 30°11' W 093°19'3 3.1
2016-Jul-22 16:34N 30°08' W 093°20'1 0.6
2016-Jul-22 15:34N 30°08' W 093°19'0 0.0
2016-Jul-22 14:34N 30°08' W 093°19'0 0.0
2016-Jul-22 13:34N 30°08' W 093°19'0 0.0
2016-Jul-22 12:33N 30°08' W 093°19'0 0.0
2016-Jul-22 11:33N 30°08' W 093°19'0 0.0
2016-Jul-22 10:34N 30°08' W 093°19'0 0.0
2016-Jul-22 09:33N 30°08' W 093°19'0 0.0
2016-Jul-22 08:33N 30°08' W 093°19'0 0.0
2016-Jul-22 07:33N 30°08' W 093°19'0 0.0
2016-Jul-22 05:33N 30°08' W 093°19'0 0.0
2016-Jul-22 04:34N 30°08' W 093°19'0 0.0
2016-Jul-22 03:34N 30°08' W 093°19'0 0.0
2016-Jul-22 02:33N 30°08' W 093°19'0 0.0
2016-Jul-22 01:34N 30°08' W 093°19'0 0.0
2016-Jul-22 00:33N 30°08' W 093°19'0 0.0
2016-Jul-21 23:34N 30°08' W 093°19'2 1.9
2016-Jul-21 22:34N 30°06' W 093°20'2 2.1
2016-Jul-21 21:33N 30°04' W 093°20'0 0.1
2016-Jul-21 20:34N 30°04' W 093°20'0 0.0
2016-Jul-21 19:33N 30°04' W 093°20'0 0.0
2016-Jul-21 18:33N 30°04' W 093°20'0 0.0
2016-Jul-21 17:34N 30°04' W 093°20'0 0.0
2016-Jul-21 16:33N 30°04' W 093°20'0 0.0
2016-Jul-21 15:33N 30°04' W 093°20'0 0.0
2016-Jul-21 14:34N 30°04' W 093°20'0 0.0
2016-Jul-21 13:33N 30°04' W 093°20'0 0.0
2016-Jul-21 12:34N 30°04' W 093°20'0 0.0
2016-Jul-21 11:33N 30°04' W 093°20'0 0.0
2016-Jul-21 10:34N 30°04' W 093°20'0 0.0
2016-Jul-21 09:34N 30°04' W 093°20'0 0.0
2016-Jul-21 08:34N 30°04' W 093°20'0 0.0
2016-Jul-21 07:34N 30°04' W 093°20'0 0.0
2016-Jul-21 06:33N 30°04' W 093°20'0 0.0
2016-Jul-21 05:34N 30°04' W 093°20'0 0.0
2016-Jul-21 04:32N 30°04' W 093°20'0 0.0
2016-Jul-21 03:33N 30°04' W 093°20'0 0.0
2016-Jul-21 02:34N 30°04' W 093°20'0 0.0
2016-Jul-21 01:34N 30°04' W 093°20'0 0.0
2016-Jul-21 00:34N 30°04' W 093°20'0 0.0
2016-Jul-20 23:34N 30°04' W 093°20'0 0.0
2016-Jul-20 22:33N 30°04' W 093°20'0 0.0
2016-Jul-20 21:34N 30°04' W 093°20'0 0.0
2016-Jul-20 20:33N 30°04' W 093°20'0 0.0
2016-Jul-20 19:34N 30°04' W 093°20'0 0.0
2016-Jul-20 18:34N 30°04' W 093°20'0 0.0
2016-Jul-20 17:34N 30°04' W 093°20'0 0.0
2016-Jul-20 16:34N 30°04' W 093°20'0 0.0
2016-Jul-20 15:33N 30°04' W 093°20'0 0.0
2016-Jul-20 14:34N 30°04' W 093°20'0 0.4
2016-Jul-20 13:34N 30°04' W 093°21'1 0.6
2016-Jul-20 12:34N 30°04' W 093°21'0 0.1
2016-Jul-20 11:34N 30°04' W 093°21'0 0.0
2016-Jul-20 10:33N 30°04' W 093°21'1 0.9
2016-Jul-20 09:34N 30°04' W 093°20'0 0.0
2016-Jul-20 08:34N 30°04' W 093°20'0 0.0
2016-Jul-20 07:34N 30°04' W 093°20'0 0.0
2016-Jul-20 06:34N 30°04' W 093°20'0 0.0
2016-Jul-20 05:33N 30°04' W 093°20'0 0.0
2016-Jul-20 04:34N 30°04' W 093°20'0 0.0
2016-Jul-20 03:34N 30°04' W 093°20'0 0.0
2016-Jul-20 02:34N 30°04' W 093°20'0 0.0
2016-Jul-20 01:34N 30°04' W 093°20'0 0.0
2016-Jul-20 00:34N 30°04' W 093°20'0 0.0
2016-Jul-19 23:34N 30°04' W 093°20'0 0.0
2016-Jul-19 22:34N 30°04' W 093°20'0 0.0
2016-Jul-19 21:34N 30°04' W 093°20'0 0.0
2016-Jul-19 20:34N 30°04' W 093°20'0 0.0
2016-Jul-19 19:33N 30°04' W 093°20'0 0.0
2016-Jul-19 18:33N 30°04' W 093°20'0 0.0
2016-Jul-19 17:33N 30°04' W 093°20'0 0.0
2016-Jul-19 16:34N 30°04' W 093°20'0 0.0
2016-Jul-19 15:34N 30°04' W 093°20'0 0.0
2016-Jul-19 14:34N 30°04' W 093°20'0 0.0
2016-Jul-19 13:34N 30°04' W 093°20'0 0.0
2016-Jul-19 12:34N 30°04' W 093°20'0 0.0
2016-Jul-19 11:34N 30°04' W 093°20'0 0.0
2016-Jul-19 10:34N 30°04' W 093°20'0 0.0
2016-Jul-19 09:33N 30°04' W 093°20'0 0.0
2016-Jul-19 08:33N 30°04' W 093°20'0 0.0
2016-Jul-19 07:34N 30°04' W 093°20'0 0.0
2016-Jul-19 04:33N 30°04' W 093°20'0 0.0
2016-Jul-19 03:34N 30°04' W 093°20'0 0.0
2016-Jul-19 02:34N 30°04' W 093°20'0 0.0
2016-Jul-19 01:34N 30°04' W 093°20'1 1.1
2016-Jul-19 00:33N 30°05' W 093°20'2 1.7
2016-Jul-18 23:34N 30°06' W 093°18'3 2.7
2016-Jul-18 22:34N 30°04' W 093°20'3 3.2
2016-Jul-18 21:34N 30°08' W 093°20'  

Dump ship's entire track history